KOXR

Oxnard Airport

Oxnard, California, USA
METAR KOXR 211951Z 28007KT 10SM CLR 17/M01 A3030 RMK AO2 SLP260 T01671011 $
Observed Flight Rules
Jan-21 @ 19:51 UTC (40 minutes ago) Visual Flight Rules
Wind Visibility Clouds
280° at 7 knots 10 miles
  • Clear skies
Temperatures Readings
Current 17°C / 63°F
Dewpoint -1°C / 30°F
Humidity 30%
Altimeter 30.3" Hg
Pressure 1026 hPa
Elevation 20
METAR KOXR 211951Z 28007KT 10SM CLR 17/M01 A3030 RMK AO2 SLP260 T01671011 $
Observed Flight Rules
Jan-21 @ 19:51 UTC
(40 minutes ago)
VFR
Wind Visibility
280° at 7 knots 10 miles
Clouds
  • Clear skies
Temperature Dewpoint
17°C / 63°F -1°C / 30°F
Humidity Altimeter Pressure
30% 30.3" Hg 1026 hPa